createdAt,value
2017-12-12T00:00:12.092Z,4.44
2017-12-12T00:01:12.076Z,4.48
2017-12-12T00:02:11.790Z,4.44
2017-12-12T00:03:11.770Z,4.51
2017-12-12T00:04:11.769Z,4.48
2017-12-12T00:05:11.736Z,4.51
2017-12-12T00:06:12.000Z,4.46
2017-12-12T00:07:11.706Z,4.53
2017-12-12T00:08:11.963Z,4.48
2017-12-12T00:09:12.234Z,4.53
2017-12-12T00:10:11.947Z,4.57
2017-12-12T00:11:11.919Z,4.58
2017-12-12T00:12:11.634Z,4.56
2017-12-12T00:13:11.618Z,4.48
2017-12-12T00:14:12.153Z,4.44
2017-12-12T00:15:11.859Z,4.54
2017-12-12T00:16:11.843Z,4.61
2017-12-12T00:17:11.829Z,4.53
2017-12-12T00:18:11.546Z,4.5
2017-12-12T00:19:12.069Z,4.54
2017-12-12T00:20:11.521Z,4.57
2017-12-12T00:21:12.100Z,4.51
2017-12-12T00:22:11.481Z,4.58
2017-12-12T00:23:11.736Z,4.58
2017-12-12T00:24:11.790Z,4.5
2017-12-12T00:25:11.979Z,4.57
2017-12-12T00:26:11.699Z,4.61
2017-12-12T00:27:11.946Z,4.54
2017-12-12T00:28:11.392Z,4.56
2017-12-12T00:29:11.380Z,4.57
2017-12-12T00:30:11.932Z,4.51
2017-12-12T00:31:11.344Z,4.42
2017-12-12T00:32:11.329Z,4.56
2017-12-12T00:33:11.589Z,4.51
2017-12-12T00:34:11.300Z,4.57
2017-12-12T00:35:11.559Z,4.56
2017-12-12T00:36:11.541Z,4.56
2017-12-12T00:37:11.253Z,4.57
2017-12-12T00:38:11.239Z,4.6
2017-12-12T00:39:11.223Z,4.56
2017-12-12T00:40:11.479Z,4.56
2017-12-12T00:41:11.740Z,4.56
2017-12-12T00:42:11.452Z,4.51
2017-12-12T00:43:11.446Z,4.5
2017-12-12T00:44:11.418Z,4.61
2017-12-12T00:45:11.412Z,4.48
2017-12-12T00:46:11.388Z,4.51
2017-12-12T00:47:11.112Z,4.51
2017-12-12T00:48:11.090Z,4.56
2017-12-12T00:49:11.623Z,4.57
2017-12-12T00:50:11.058Z,4.54
2017-12-12T00:51:11.045Z,4.5
2017-12-12T00:52:11.028Z,4.53
2017-12-12T00:53:11.283Z,4.57
2017-12-12T00:54:11.007Z,4.57
2017-12-12T00:55:10.982Z,4.51
2017-12-12T00:56:11.236Z,4.47
2017-12-12T00:57:10.964Z,4.56
2017-12-12T00:58:11.209Z,4.51
2017-12-12T00:59:10.921Z,4.58
2017-12-12T01:00:10.918Z,4.53
2017-12-12T01:01:11.164Z,4.51
2017-12-12T01:02:11.148Z,4.51
2017-12-12T01:03:11.134Z,4.51
2017-12-12T01:04:10.867Z,4.53
2017-12-12T01:05:11.113Z,4.51
2017-12-12T01:06:11.088Z,4.53
2017-12-12T01:07:11.074Z,4.51
2017-12-12T01:08:11.054Z,4.54
2017-12-12T01:09:10.776Z,4.53
2017-12-12T01:10:11.026Z,4.5
2017-12-12T01:11:11.012Z,4.5
2017-12-12T01:12:11.003Z,4.5
2017-12-12T01:13:10.711Z,4.48
2017-12-12T01:14:10.971Z,4.5
2017-12-12T01:15:11.222Z,4.47
2017-12-12T01:16:10.669Z,4.53
2017-12-12T01:17:11.207Z,4.47
2017-12-12T01:18:10.634Z,4.53
2017-12-12T01:19:10.891Z,4.44
2017-12-12T01:20:10.606Z,4.47
2017-12-12T01:21:10.589Z,4.5
2017-12-12T01:22:11.135Z,4.53
2017-12-12T01:23:10.835Z,4.46
2017-12-12T01:24:10.560Z,4.57
2017-12-12T01:25:10.815Z,4.48
2017-12-12T01:26:10.786Z,4.53
2017-12-12T01:27:11.040Z,4.5
2017-12-12T01:28:10.494Z,4.5
2017-12-12T01:29:10.748Z,4.51
2017-12-12T01:30:10.743Z,4.53
2017-12-12T01:31:10.437Z,4.47
2017-12-12T01:32:10.697Z,4.47
2017-12-12T01:33:10.736Z,4.39
2017-12-12T01:34:10.664Z,4.47
2017-12-12T01:35:10.647Z,4.46
2017-12-12T01:36:10.634Z,4.48
2017-12-12T01:37:10.892Z,4.39
2017-12-12T01:38:10.334Z,4.46
2017-12-12T01:39:10.329Z,4.42
2017-12-12T01:40:10.844Z,4.47
2017-12-12T01:41:10.307Z,4.36
2017-12-12T01:42:10.548Z,4.47
2017-12-12T01:43:10.532Z,4.46
2017-12-12T01:44:10.532Z,4.46
2017-12-12T01:45:10.500Z,4.46
2017-12-12T01:46:10.494Z,4.47
2017-12-12T01:47:10.192Z,4.44
2017-12-12T01:48:10.739Z,4.44
2017-12-12T01:49:10.455Z,4.4
2017-12-12T01:50:10.423Z,4.44
2017-12-12T01:51:10.461Z,4.42
2017-12-12T01:52:10.121Z,4.42
2017-12-12T01:53:10.394Z,4.42
2017-12-12T01:54:10.089Z,4.44
2017-12-12T01:55:10.343Z,4.35
2017-12-12T01:56:10.606Z,4.33
2017-12-12T01:57:10.044Z,4.38
2017-12-12T01:58:10.596Z,4.33
2017-12-12T01:59:10.573Z,4.35
2017-12-12T02:00:10.577Z,4.44
2017-12-12T02:01:10.254Z,4.44
2017-12-12T02:02:09.969Z,4.46
2017-12-12T02:03:10.242Z,4.44
2017-12-12T02:04:10.215Z,4.48
2017-12-12T02:05:10.471Z,4.4
2017-12-12T02:06:10.178Z,4.42
2017-12-12T02:07:10.170Z,4.4
2017-12-12T02:08:10.440Z,4.42
2017-12-12T02:09:10.131Z,4.44
2017-12-12T02:10:10.390Z,4.44
2017-12-12T02:11:10.106Z,4.44
2017-12-12T02:12:10.089Z,4.39
2017-12-12T02:13:09.800Z,4.44
2017-12-12T02:14:10.060Z,4.42
2017-12-12T02:15:10.314Z,4.39
2017-12-12T02:16:10.300Z,4.42
2017-12-12T02:17:09.739Z,4.36
2017-12-12T02:18:09.997Z,4.36
2017-12-12T02:19:10.253Z,4.3
2017-12-12T02:20:09.967Z,4.33
2017-12-12T02:21:09.961Z,4.33
2017-12-12T02:22:10.283Z,4.26
2017-12-12T02:23:09.941Z,4.3
2017-12-12T02:24:10.182Z,4.29
2017-12-12T02:25:09.895Z,4.29
2017-12-12T02:26:09.882Z,4.35
2017-12-12T02:27:09.866Z,4.28
2017-12-12T02:28:09.840Z,4.3
2017-12-12T02:29:09.573Z,4.29
2017-12-12T02:30:10.087Z,4.24
2017-12-12T02:31:09.524Z,4.35
2017-12-12T02:32:10.064Z,4.33
2017-12-12T02:33:09.769Z,4.35
2017-12-12T02:34:09.494Z,4.32
2017-12-12T02:35:09.737Z,4.29
2017-12-12T02:36:09.449Z,4.28
2017-12-12T02:37:09.999Z,4.3
2017-12-12T02:38:09.417Z,4.33
2017-12-12T02:39:09.675Z,4.32
2017-12-12T02:40:09.663Z,4.28
2017-12-12T02:41:09.645Z,4.32
2017-12-12T02:42:09.645Z,4.26
2017-12-12T02:43:09.616Z,4.24
2017-12-12T02:44:09.349Z,4.15
2017-12-12T02:45:09.599Z,4.2
2017-12-12T02:46:09.345Z,4.11
2017-12-12T02:47:09.657Z,4.15
2017-12-12T02:48:09.538Z,4.07
2017-12-12T02:49:09.535Z,4.08
2017-12-12T02:50:09.238Z,4.11
2017-12-12T02:51:09.520Z,4.14
2017-12-12T02:52:09.227Z,4.1
2017-12-12T02:53:09.461Z,4.12
2017-12-12T02:54:09.445Z,4.24
2017-12-12T02:55:09.159Z,4.12
2017-12-12T02:56:09.145Z,4.17
2017-12-12T02:57:09.130Z,4.17
2017-12-12T02:58:09.114Z,4.17
2017-12-12T02:59:09.368Z,4.24
2017-12-12T03:00:09.088Z,4.35
2017-12-12T03:01:09.068Z,4.3
2017-12-12T03:02:09.329Z,4.35
2017-12-12T03:03:09.333Z,4.22
2017-12-12T03:04:09.019Z,4.35
2017-12-12T03:05:09.004Z,4.29
2017-12-12T03:06:09.434Z,4.26
2017-12-12T03:07:09.517Z,4.36
2017-12-12T03:08:09.176Z,4.36
2017-12-12T03:09:09.784Z,4.28
2017-12-12T03:10:09.215Z,4.22
2017-12-12T03:11:08.912Z,4.2
2017-12-12T03:12:08.897Z,4.29
2017-12-12T03:13:08.883Z,4.2
2017-12-12T03:14:09.137Z,4.2
2017-12-12T03:15:08.865Z,4.2
2017-12-12T03:16:09.106Z,4.18
2017-12-12T03:17:09.382Z,4.14
2017-12-12T03:18:09.076Z,4.12
2017-12-12T03:19:08.809Z,4.11
2017-12-12T03:20:09.044Z,4.15
2017-12-12T03:21:09.076Z,4.14
2017-12-12T03:22:09.012Z,4.15
2017-12-12T03:23:08.733Z,4.21
2017-12-12T03:24:08.987Z,4.15
2017-12-12T03:25:08.700Z,4.21
2017-12-12T03:26:08.692Z,4.2
2017-12-12T03:27:08.940Z,4.21
2017-12-12T03:28:09.261Z,4.18
2017-12-12T03:29:08.906Z,4.08
2017-12-12T03:30:08.630Z,4.1
2017-12-12T03:31:08.898Z,4.12
2017-12-12T03:32:09.144Z,4.11
2017-12-12T03:33:08.848Z,4.04
2017-12-12T03:34:08.910Z,3.92
2017-12-12T03:35:08.544Z,3.97
2017-12-12T03:36:08.808Z,4.02
2017-12-12T03:37:08.781Z,4.02
2017-12-12T03:38:08.768Z,3.99
2017-12-12T03:39:09.030Z,4.02
2017-12-12T03:40:08.482Z,4.03
2017-12-12T03:41:08.739Z,4.03
2017-12-12T03:42:08.707Z,4.03
2017-12-12T03:43:08.698Z,4
2017-12-12T03:44:08.424Z,3.93
2017-12-12T03:45:08.388Z,3.92
2017-12-12T03:46:08.915Z,3.93
2017-12-12T03:47:08.629Z,4.03
2017-12-12T03:48:08.618Z,3.96
2017-12-12T03:49:08.612Z,3.94
2017-12-12T03:50:08.312Z,3.89
2017-12-12T03:51:08.294Z,3.94
2017-12-12T03:52:08.554Z,4
2017-12-12T03:53:08.536Z,3.94
2017-12-12T03:54:08.524Z,3.89
2017-12-12T03:55:08.782Z,3.97
2017-12-12T03:56:08.217Z,3.93
2017-12-12T03:57:08.766Z,3.84
2017-12-12T03:58:08.202Z,3.84
2017-12-12T03:59:08.170Z,3.85
2017-12-12T04:00:08.155Z,3.84
2017-12-12T04:01:08.410Z,3.74
2017-12-12T04:02:08.123Z,3.76
2017-12-12T04:03:08.652Z,3.74
2017-12-12T04:04:08.637Z,3.76
2017-12-12T04:05:08.349Z,3.69
2017-12-12T04:06:08.061Z,3.69
2017-12-12T04:07:08.046Z,3.75
2017-12-12T04:08:08.301Z,3.81
2017-12-12T04:09:08.286Z,3.72
2017-12-12T04:10:08.273Z,3.82
2017-12-12T04:11:08.255Z,3.75
2017-12-12T04:12:08.253Z,3.82
2017-12-12T04:13:08.225Z,3.84
2017-12-12T04:14:07.939Z,3.93
2017-12-12T04:15:07.921Z,3.9
2017-12-12T04:16:08.477Z,3.96
2017-12-12T04:17:08.450Z,3.82
2017-12-12T04:18:08.145Z,3.93
2017-12-12T04:19:07.881Z,3.92
2017-12-12T04:20:08.116Z,3.93
2017-12-12T04:21:08.104Z,4
2017-12-12T04:22:07.813Z,4
2017-12-12T04:23:07.801Z,3.92
2017-12-12T04:24:08.052Z,3.97
2017-12-12T04:25:07.775Z,4.02
2017-12-12T04:26:08.022Z,4.02
2017-12-12T04:27:08.032Z,3.93
2017-12-12T04:28:07.719Z,3.92
2017-12-12T04:29:07.978Z,4.07
2017-12-12T04:30:08.443Z,4.12
2017-12-12T04:31:07.673Z,4.14
2017-12-12T04:32:07.929Z,4.21
2017-12-12T04:33:07.918Z,4.15
2017-12-12T04:34:07.903Z,4.17
2017-12-12T04:35:07.633Z,4.21
2017-12-12T04:36:07.596Z,4.2
2017-12-12T04:37:07.852Z,4.21
2017-12-12T04:38:07.839Z,4.3
2017-12-12T04:39:07.550Z,4.24
2017-12-12T04:40:08.097Z,4.2
2017-12-12T04:41:07.801Z,4.14
2017-12-12T04:42:07.782Z,4.26
2017-12-12T04:43:07.509Z,4.26
2017-12-12T04:44:07.752Z,4.28
2017-12-12T04:45:07.727Z,4.18
2017-12-12T04:46:07.508Z,4.22
2017-12-12T04:47:07.693Z,4.18
2017-12-12T04:48:07.684Z,4.26
2017-12-12T04:49:07.395Z,4.32
2017-12-12T04:50:07.379Z,4.24
2017-12-12T04:51:07.640Z,4.28
2017-12-12T04:52:07.619Z,4.22
2017-12-12T04:53:07.332Z,4.15
2017-12-12T04:54:07.860Z,4.18
2017-12-12T04:55:07.580Z,4.14
2017-12-12T04:56:07.558Z,4.17
2017-12-12T04:57:07.270Z,4.11
2017-12-12T04:58:07.256Z,4.12
2017-12-12T04:59:07.517Z,4.08
2017-12-12T05:00:07.225Z,4.07
2017-12-12T05:01:07.749Z,4
2017-12-12T05:02:07.770Z,3.97
2017-12-12T05:03:07.724Z,3.94
2017-12-12T05:04:07.166Z,3.93
2017-12-12T05:05:07.148Z,3.96
2017-12-12T05:06:07.132Z,3.92
2017-12-12T05:07:07.660Z,3.93
2017-12-12T05:08:07.105Z,3.9
2017-12-12T05:09:07.364Z,3.9
2017-12-12T05:10:07.070Z,3.97
2017-12-12T05:11:07.063Z,3.97
2017-12-12T05:12:07.036Z,3.93
2017-12-12T05:13:07.313Z,3.93
2017-12-12T05:14:07.285Z,3.92
2017-12-12T05:15:07.278Z,3.94
2017-12-12T05:16:06.991Z,3.99
2017-12-12T05:17:07.229Z,3.97
2017-12-12T05:18:07.219Z,3.94
2017-12-12T05:19:07.484Z,3.96
2017-12-12T05:20:07.184Z,3.9
2017-12-12T05:21:07.438Z,3.89
2017-12-12T05:22:07.156Z,3.93
2017-12-12T05:23:06.867Z,3.78
2017-12-12T05:24:07.392Z,3.76
2017-12-12T05:25:07.120Z,3.76
2017-12-12T05:26:06.830Z,3.74
2017-12-12T05:27:06.802Z,3.79
2017-12-12T05:28:06.789Z,3.71
2017-12-12T05:29:07.314Z,3.76
2017-12-12T05:30:07.028Z,3.71
2017-12-12T05:31:06.741Z,3.66
2017-12-12T05:32:07.001Z,3.71
2017-12-12T05:33:06.991Z,3.71
2017-12-12T05:34:06.693Z,3.72
2017-12-12T05:35:07.224Z,3.69
2017-12-12T05:36:06.933Z,3.69
2017-12-12T05:37:06.915Z,3.63
2017-12-12T05:38:06.930Z,3.67
2017-12-12T05:39:06.883Z,3.67
2017-12-12T05:40:06.869Z,3.6
2017-12-12T05:41:06.582Z,3.63
2017-12-12T05:42:06.575Z,3.72
2017-12-12T05:43:06.823Z,3.69
2017-12-12T05:44:06.807Z,3.72
2017-12-12T05:45:07.063Z,3.71
2017-12-12T05:46:07.047Z,3.69
2017-12-12T05:47:06.488Z,3.64
2017-12-12T05:48:07.098Z,3.64
2017-12-12T05:49:06.726Z,3.75
2017-12-12T05:50:06.714Z,3.64
2017-12-12T05:51:06.423Z,3.74
2017-12-12T05:52:06.415Z,3.75
2017-12-12T05:53:06.664Z,3.58
2017-12-12T05:54:06.380Z,3.63
2017-12-12T05:55:06.362Z,3.61
2017-12-12T05:56:06.618Z,3.53
2017-12-12T05:57:06.335Z,3.6
2017-12-12T05:58:06.589Z,3.57
2017-12-12T05:59:06.298Z,3.58
2017-12-12T06:00:06.559Z,3.56
2017-12-12T06:01:06.538Z,3.48
2017-12-12T06:02:06.521Z,3.57
2017-12-12T06:03:06.252Z,3.56
2017-12-12T06:04:06.489Z,3.53
2017-12-12T06:05:06.479Z,3.49
2017-12-12T06:06:06.736Z,3.49
2017-12-12T06:07:06.442Z,3.51
2017-12-12T06:08:06.431Z,3.45
2017-12-12T06:09:06.411Z,3.32
2017-12-12T06:10:06.123Z,3.26
2017-12-12T06:11:06.108Z,3.14
2017-12-12T06:12:06.092Z,3.05
2017-12-12T06:13:06.075Z,2.9
2017-12-12T06:14:06.060Z,2.81
2017-12-12T06:15:06.594Z,2.78
2017-12-12T06:16:06.301Z,2.73
2017-12-12T06:17:06.009Z,2.7
2017-12-12T06:18:06.540Z,2.59
2017-12-12T06:19:05.979Z,2.62
2017-12-12T06:20:06.257Z,2.59
2017-12-12T06:21:05.958Z,2.54
2017-12-12T06:22:05.979Z,2.58
2017-12-12T06:23:06.468Z,2.63
2017-12-12T06:24:06.172Z,2.54
2017-12-12T06:25:06.423Z,2.48
2017-12-12T06:26:06.162Z,2.63
2017-12-12T06:27:06.398Z,2.55
2017-12-12T06:28:05.834Z,2.55
2017-12-12T06:29:06.379Z,2.58
2017-12-12T06:30:05.808Z,2.55
2017-12-12T06:31:06.054Z,2.58
2017-12-12T06:32:06.060Z,2.52
2017-12-12T06:33:05.761Z,2.47
2017-12-12T06:34:06.008Z,2.45
2017-12-12T06:35:06.008Z,2.47
2017-12-12T06:36:05.974Z,2.36
2017-12-12T06:37:05.684Z,2.36
2017-12-12T06:38:05.666Z,2.36
2017-12-12T06:39:05.920Z,2.4
2017-12-12T06:40:05.927Z,2.3
2017-12-12T06:41:05.626Z,2.31
2017-12-12T06:42:05.873Z,2.3
2017-12-12T06:43:05.582Z,2.34
2017-12-12T06:44:05.580Z,2.29
2017-12-12T06:45:05.551Z,2.18
2017-12-12T06:46:06.112Z,2.2
2017-12-12T06:47:06.064Z,2.13
2017-12-12T06:48:05.771Z,2.2
2017-12-12T06:49:05.755Z,2.16
2017-12-12T06:50:06.019Z,2.06
2017-12-12T06:51:05.449Z,2.11
2017-12-12T06:52:05.431Z,2.06
2017-12-12T06:53:05.973Z,2.08
2017-12-12T06:54:05.674Z,1.9
2017-12-12T06:55:05.654Z,2.04
2017-12-12T06:56:05.383Z,1.89
2017-12-12T06:57:05.620Z,1.86
2017-12-12T06:58:05.336Z,1.84
2017-12-12T06:59:05.313Z,1.92
2017-12-12T07:00:05.569Z,1.92
2017-12-12T07:01:05.549Z,1.82
2017-12-12T07:02:05.535Z,1.82
2017-12-12T07:03:05.813Z,1.89
2017-12-12T07:04:05.295Z,1.92
2017-12-12T07:05:05.773Z,1.83
2017-12-12T07:06:05.194Z,1.83
2017-12-12T07:07:05.454Z,1.83
2017-12-12T07:08:05.432Z,1.83
2017-12-12T07:09:05.428Z,1.86
2017-12-12T07:10:05.125Z,1.86
2017-12-12T07:11:05.673Z,1.84
2017-12-12T07:12:05.374Z,1.84
2017-12-12T07:13:05.347Z,1.74
2017-12-12T07:14:09.185Z,1.76
2017-12-12T07:15:05.320Z,1.71
2017-12-12T07:16:05.023Z,1.69
2017-12-12T07:17:05.005Z,1.71
2017-12-12T07:18:05.260Z,1.57
2017-12-12T07:19:04.972Z,1.68
2017-12-12T07:20:05.519Z,1.6
2017-12-12T07:21:04.938Z,1.57
2017-12-12T07:22:04.921Z,1.6
2017-12-12T07:23:05.172Z,1.56
2017-12-12T07:24:04.887Z,1.58
2017-12-12T07:25:05.411Z,1.48
2017-12-12T07:26:04.851Z,1.57
2017-12-12T07:27:05.106Z,1.54
2017-12-12T07:28:05.375Z,1.51
2017-12-12T07:29:04.799Z,1.44
2017-12-12T07:30:05.344Z,1.56
2017-12-12T07:31:05.041Z,1.51
2017-12-12T07:32:05.329Z,1.54
2017-12-12T07:33:04.733Z,1.51
2017-12-12T07:34:04.986Z,1.48
2017-12-12T07:35:04.969Z,1.48
2017-12-12T07:36:05.222Z,1.5
2017-12-12T07:37:04.950Z,1.53
2017-12-12T07:38:04.924Z,1.54
2017-12-12T07:39:04.897Z,1.51
2017-12-12T07:40:04.937Z,1.38
2017-12-12T07:41:04.867Z,1.5
2017-12-12T07:42:05.114Z,1.53
2017-12-12T07:43:04.576Z,1.46
2017-12-12T07:44:04.815Z,1.46
2017-12-12T07:45:04.521Z,1.56
2017-12-12T07:46:04.526Z,1.51
2017-12-12T07:47:04.766Z,1.4
2017-12-12T07:48:04.743Z,1.44
2017-12-12T07:49:04.997Z,1.44
2017-12-12T07:50:04.434Z,1.57
2017-12-12T07:51:04.691Z,1.4
2017-12-12T07:52:04.688Z,1.39
2017-12-12T07:53:04.663Z,1.44
2017-12-12T07:54:04.637Z,1.5
2017-12-12T07:55:04.357Z,1.42
2017-12-12T07:56:04.603Z,1.4
2017-12-12T07:57:04.867Z,1.47
2017-12-12T07:58:04.295Z,1.42
2017-12-12T07:59:04.565Z,1.56
2017-12-12T08:00:04.832Z,1.48
2017-12-12T08:01:04.787Z,1.4
2017-12-12T08:02:04.226Z,1.5
2017-12-12T08:03:04.212Z,1.48
2017-12-12T08:04:04.462Z,1.5
2017-12-12T08:05:04.176Z,1.47
2017-12-12T08:07:04.141Z,1.51
2017-12-12T08:08:04.149Z,1.48
2017-12-12T08:09:04.106Z,1.47
2017-12-12T08:10:04.359Z,1.44
2017-12-12T08:11:04.077Z,1.5
2017-12-12T08:12:04.053Z,1.46
2017-12-12T08:13:04.035Z,1.5
2017-12-12T08:14:04.608Z,1.46
2017-12-12T08:15:04.626Z,1.47
2017-12-12T08:16:04.254Z,1.4
2017-12-12T08:17:03.967Z,1.42
2017-12-12T08:18:04.218Z,1.4
2017-12-12T08:19:04.199Z,1.42
2017-12-12T08:20:04.183Z,1.36
2017-12-12T08:21:04.170Z,1.36
2017-12-12T08:22:03.876Z,1.4
2017-12-12T08:23:04.132Z,1.35
2017-12-12T08:24:04.114Z,1.4
2017-12-12T08:25:04.094Z,1.42
2017-12-12T08:26:04.079Z,1.42
2017-12-12T08:27:04.100Z,1.32
2017-12-12T08:28:04.048Z,1.39
2017-12-12T08:29:04.027Z,1.39
2017-12-12T08:30:04.298Z,1.38
2017-12-12T08:31:03.736Z,1.39
2017-12-12T08:32:04.246Z,1.4
2017-12-12T08:33:03.686Z,1.29
2017-12-12T08:34:03.962Z,1.39
2017-12-12T08:35:04.200Z,1.32
2017-12-12T08:36:03.922Z,1.4
2017-12-12T08:37:04.159Z,1.39
2017-12-12T08:38:03.868Z,1.35
2017-12-12T08:39:03.580Z,1.36
2017-12-12T08:40:03.856Z,1.39
2017-12-12T08:41:03.832Z,1.36
2017-12-12T08:42:03.798Z,1.39
2017-12-12T08:43:03.784Z,1.3
2017-12-12T08:44:03.762Z,1.4
2017-12-12T08:45:03.746Z,1.29
2017-12-12T08:46:04.002Z,1.36
2017-12-12T08:47:03.712Z,1.42
2017-12-12T08:48:03.697Z,1.33
2017-12-12T08:49:03.677Z,1.29
2017-12-12T08:50:03.658Z,1.42
2017-12-12T08:51:03.375Z,1.29
2017-12-12T08:52:03.354Z,1.38
2017-12-12T08:53:03.608Z,1.29
2017-12-12T08:54:03.862Z,1.4
2017-12-12T08:55:03.574Z,1.38
2017-12-12T08:56:03.553Z,1.33
2017-12-12T08:57:03.544Z,1.4
2017-12-12T08:58:03.257Z,1.39
2017-12-12T08:59:03.501Z,1.3
2017-12-12T09:00:03.757Z,1.35
2017-12-12T09:01:03.752Z,1.33
2017-12-12T09:02:03.720Z,1.4
2017-12-12T09:03:03.431Z,1.35
2017-12-12T09:04:03.141Z,1.39
2017-12-12T09:05:03.400Z,1.36
2017-12-12T09:06:03.381Z,1.4
2017-12-12T09:07:03.634Z,1.38
2017-12-12T09:08:03.353Z,1.35
2017-12-12T09:09:03.055Z,1.39
2017-12-12T09:10:03.584Z,1.44
2017-12-12T09:11:03.022Z,1.39
2017-12-12T09:12:03.003Z,1.35
2017-12-12T09:13:02.987Z,1.33
2017-12-12T09:14:03.242Z,1.39
2017-12-12T09:15:03.226Z,1.4
2017-12-12T09:16:03.202Z,1.44
2017-12-12T09:17:03.188Z,1.38
2017-12-12T09:18:03.171Z,1.47
2017-12-12T09:19:02.881Z,1.5
2017-12-12T09:20:03.405Z,1.48
2017-12-12T09:21:03.117Z,1.53
2017-12-12T09:22:03.102Z,1.56
2017-12-12T09:23:03.385Z,1.57
2017-12-12T09:24:03.064Z,1.5
2017-12-12T09:25:03.067Z,1.46
2017-12-12T09:26:03.031Z,1.44
2017-12-12T09:27:02.740Z,1.48
2017-12-12T09:28:02.997Z,1.51
2017-12-12T09:29:02.708Z,1.53
2017-12-12T09:30:02.692Z,1.47
2017-12-12T09:31:03.218Z,1.47
2017-12-12T09:32:02.924Z,1.48
2017-12-12T09:33:02.636Z,1.44
2017-12-12T09:34:02.893Z,1.47
2017-12-12T09:35:02.620Z,1.48
2017-12-12T09:36:02.859Z,1.5
2017-12-12T09:37:02.846Z,1.46
2017-12-12T09:38:02.555Z,1.48
2017-12-12T09:39:02.803Z,1.57
2017-12-12T09:40:03.065Z,1.39
2017-12-12T09:41:02.771Z,1.48
2017-12-12T09:42:02.751Z,1.53
2017-12-12T09:43:02.462Z,1.54
2017-12-12T09:44:02.993Z,1.46
2017-12-12T09:45:02.702Z,1.47
2017-12-12T09:46:02.684Z,1.4
2017-12-12T09:47:02.394Z,1.5
2017-12-12T09:48:02.917Z,1.47
2017-12-12T09:49:02.913Z,1.51
2017-12-12T09:50:02.631Z,1.46
2017-12-12T09:51:02.329Z,1.39
2017-12-12T09:52:02.854Z,1.4
2017-12-12T09:53:02.569Z,1.47
2017-12-12T09:54:02.291Z,1.47
2017-12-12T09:55:02.807Z,1.46
2017-12-12T09:56:02.509Z,1.5
2017-12-12T09:57:02.770Z,1.46
2017-12-12T09:58:02.475Z,1.47
2017-12-12T09:59:02.735Z,1.47
2017-12-12T10:00:02.444Z,1.51
2017-12-12T10:01:02.436Z,1.51
2017-12-12T10:02:02.406Z,1.48
2017-12-12T10:03:02.658Z,1.46
2017-12-12T10:04:02.373Z,1.48
2017-12-12T10:05:02.355Z,1.47
2017-12-12T10:06:02.079Z,1.44
2017-12-12T10:07:02.344Z,1.42
2017-12-12T10:08:02.306Z,1.39
2017-12-12T10:09:02.560Z,1.38
2017-12-12T10:10:02.554Z,1.38
2017-12-12T10:11:01.976Z,1.39
2017-12-12T10:12:02.253Z,1.38
2017-12-12T10:13:01.943Z,1.36
2017-12-12T10:14:02.468Z,1.44
2017-12-12T10:15:02.180Z,1.46
2017-12-12T10:16:02.436Z,1.4
2017-12-12T10:17:02.430Z,1.36
2017-12-12T10:18:01.856Z,1.4
2017-12-12T10:19:02.390Z,1.35
2017-12-12T10:20:01.823Z,1.38
2017-12-12T10:21:02.076Z,1.36
2017-12-12T10:22:01.783Z,1.39
2017-12-12T10:23:01.770Z,1.4
2017-12-12T10:24:02.038Z,1.42
2017-12-12T10:25:02.293Z,1.39
2017-12-12T10:26:01.718Z,1.4
2017-12-12T10:27:01.700Z,1.36
2017-12-12T10:28:01.954Z,1.44
2017-12-12T10:29:01.666Z,1.39
2017-12-12T10:30:01.923Z,1.36
2017-12-12T10:31:01.899Z,1.42
2017-12-12T10:32:01.904Z,1.4
2017-12-12T10:33:01.866Z,1.38
2017-12-12T10:34:01.576Z,1.38
2017-12-12T10:35:01.837Z,1.35
2017-12-12T10:36:01.553Z,1.3
2017-12-12T10:37:01.796Z,1.36
2017-12-12T10:38:01.787Z,1.36
2017-12-12T10:39:01.492Z,1.44
2017-12-12T10:40:01.742Z,1.42
2017-12-12T10:41:01.457Z,1.44
2017-12-12T10:42:01.712Z,1.44
2017-12-12T10:43:01.698Z,1.48
2017-12-12T10:44:01.406Z,1.48
2017-12-12T10:45:01.659Z,1.51
2017-12-12T10:46:01.367Z,1.47
2017-12-12T10:47:01.624Z,1.5
2017-12-12T10:48:01.879Z,1.48
2017-12-12T10:49:01.606Z,1.5
2017-12-12T10:50:01.570Z,1.46
2017-12-12T10:51:01.608Z,1.5
2017-12-12T10:52:01.270Z,1.51
2017-12-12T10:53:01.581Z,1.46
2017-12-12T10:54:01.503Z,1.48
2017-12-12T10:55:01.490Z,1.44
2017-12-12T10:56:01.751Z,1.47
2017-12-12T10:57:01.179Z,1.57
2017-12-12T10:58:01.456Z,1.39
2017-12-12T10:59:01.416Z,1.42
2017-12-12T11:00:01.131Z,1.57
2017-12-12T11:01:01.109Z,1.48
2017-12-12T11:02:01.090Z,1.46
2017-12-12T11:03:01.342Z,1.46
2017-12-12T11:04:01.109Z,1.54
2017-12-12T11:05:01.039Z,1.58
2017-12-12T11:06:01.020Z,1.47
2017-12-12T11:07:01.003Z,1.53
2017-12-12T11:08:01.314Z,1.64
2017-12-12T11:09:00.969Z,1.6
2017-12-12T11:10:01.262Z,1.6
2017-12-12T11:11:00.935Z,1.64
2017-12-12T11:12:01.201Z,1.61
2017-12-12T11:13:01.174Z,1.64
2017-12-12T11:14:01.426Z,1.66
2017-12-12T11:15:00.883Z,1.6
2017-12-12T11:16:01.395Z,1.74
2017-12-12T11:17:00.847Z,1.68
2017-12-12T11:18:01.376Z,1.76
2017-12-12T11:19:01.071Z,1.61
2017-12-12T11:20:00.777Z,1.69
2017-12-12T11:21:00.770Z,1.57
2017-12-12T11:22:01.020Z,1.68
2017-12-12T11:23:00.725Z,1.65
2017-12-12T11:24:00.708Z,1.56
2017-12-12T11:25:00.964Z,1.71
2017-12-12T11:26:00.675Z,1.78
2017-12-12T11:27:00.930Z,1.82
2017-12-12T11:28:01.185Z,1.84
2017-12-12T11:29:00.895Z,1.86
2017-12-12T11:30:00.878Z,1.97
2017-12-12T11:31:00.589Z,2.09
2017-12-12T11:32:00.843Z,2.05
2017-12-12T11:33:00.554Z,2.15
2017-12-12T11:34:00.811Z,2.13
2017-12-12T11:35:00.808Z,2.2
2017-12-12T11:36:00.800Z,2.23
2017-12-12T11:37:00.486Z,2.15
2017-12-12T11:38:00.746Z,2.16
2017-12-12T11:39:00.723Z,2.16
2017-12-12T11:40:00.727Z,2.16
2017-12-12T11:41:00.686Z,2.27
2017-12-12T11:42:00.423Z,2.24
2017-12-12T11:43:00.945Z,2.31
2017-12-12T11:44:00.371Z,2.3
2017-12-12T11:45:00.917Z,2.22
2017-12-12T11:46:00.604Z,2.16
2017-12-12T11:47:00.592Z,2.23
2017-12-12T11:48:00.570Z,2.06
2017-12-12T11:49:00.284Z,2.08
2017-12-12T11:50:00.538Z,2.05
2017-12-12T11:51:00.521Z,1.97
2017-12-12T11:52:00.546Z,2.02
2017-12-12T11:53:00.216Z,1.82
2017-12-12T11:54:00.200Z,1.9
2017-12-12T11:55:00.185Z,1.86
2017-12-12T11:56:00.436Z,1.82
2017-12-12T11:57:00.704Z,1.71
2017-12-12T11:58:00.401Z,1.72
2017-12-12T11:59:00.417Z,1.72
2017-12-12T12:00:00.247Z,1.75
2017-12-12T12:01:00.349Z,1.71
2017-12-12T12:02:00.334Z,1.78
2017-12-12T12:03:00.338Z,1.72
2017-12-12T12:04:00.305Z,1.75
2017-12-12T12:05:00.009Z,1.69
2017-12-12T12:06:00.265Z,1.75
2017-12-12T12:07:00.250Z,1.76
2017-12-12T12:08:00.231Z,1.66
2017-12-12T12:09:00.244Z,1.61
2017-12-12T12:10:00.199Z,1.57
2017-12-12T12:11:00.181Z,1.58
2017-12-12T12:12:00.166Z,1.65
2017-12-12T12:13:00.418Z,1.61
2017-12-12T12:13:59.859Z,1.58
2017-12-12T12:14:59.842Z,1.57
2017-12-12T12:16:00.391Z,1.6
2017-12-12T12:16:59.807Z,1.58
2017-12-12T12:17:59.825Z,1.56
2017-12-12T12:19:00.048Z,1.57
2017-12-12T12:19:59.768Z,1.54
2017-12-12T12:20:59.738Z,1.53
2017-12-12T12:21:59.992Z,1.57
2017-12-12T12:22:59.977Z,1.48
2017-12-12T12:23:59.691Z,1.5
2017-12-12T12:24:59.961Z,1.5
2017-12-12T12:25:59.933Z,1.53
2017-12-12T12:26:59.632Z,1.57
2017-12-12T12:27:59.626Z,1.57
2017-12-12T12:28:59.607Z,1.56
2017-12-12T12:29:59.589Z,1.56
2017-12-12T12:31:00.113Z,1.61
2017-12-12T12:31:59.546Z,1.61
2017-12-12T12:32:59.531Z,1.74
2017-12-12T12:33:59.511Z,1.76
2017-12-12T12:34:59.781Z,1.86
2017-12-12T12:35:59.751Z,1.9
2017-12-12T12:36:59.742Z,1.97
2017-12-12T12:38:00.049Z,2.13
2017-12-12T12:38:59.704Z,2.12
2017-12-12T12:39:59.684Z,2.31
2017-12-12T12:40:59.392Z,2.3
2017-12-12T12:41:59.376Z,2.34
2017-12-12T12:42:59.359Z,2.29
2017-12-12T12:43:59.632Z,2.31
2017-12-12T12:44:59.888Z,2.23
2017-12-12T12:45:59.613Z,2.2
2017-12-12T12:46:59.833Z,2.18
2017-12-12T12:47:59.552Z,2.06
2017-12-12T12:48:59.527Z,2.12
2017-12-12T12:49:59.261Z,2.12
2017-12-12T12:50:59.241Z,2.06
2017-12-12T12:51:59.208Z,2.11
2017-12-12T12:52:59.459Z,1.98
2017-12-12T12:53:59.441Z,1.98
2017-12-12T12:54:59.428Z,1.86
2017-12-12T12:55:59.689Z,1.93
2017-12-12T12:56:59.406Z,2.06
2017-12-12T12:57:59.104Z,1.82
2017-12-12T12:58:59.111Z,1.87
2017-12-12T12:59:59.068Z,1.83
2017-12-12T13:00:59.325Z,1.87
2017-12-12T13:01:59.588Z,1.9
2017-12-12T13:02:59.296Z,1.86
2017-12-12T13:03:59.012Z,1.79
2017-12-12T13:04:58.983Z,1.74
2017-12-12T13:05:59.277Z,1.84
2017-12-12T13:06:59.495Z,1.86
2017-12-12T13:07:59.203Z,1.84
2017-12-12T13:08:58.918Z,1.87
2017-12-12T13:09:59.181Z,1.86
2017-12-12T13:10:59.157Z,1.79
2017-12-12T13:11:59.154Z,1.92
2017-12-12T13:12:58.848Z,1.86
2017-12-12T13:13:59.103Z,1.71
2017-12-12T13:14:59.089Z,1.76
2017-12-12T13:15:59.070Z,1.57
2017-12-12T13:16:58.780Z,1.57
2017-12-12T13:17:58.764Z,1.53
2017-12-12T13:18:58.750Z,1.57
2017-12-12T13:19:58.731Z,1.46
2017-12-12T13:20:58.712Z,1.51
2017-12-12T13:21:58.982Z,1.42
2017-12-12T13:22:59.218Z,1.35